createdAt,value
2023-12-09T00:00:33.219Z,-18.65
2023-12-09T00:03:00.761Z,-18.84
2023-12-09T00:05:28.051Z,-18.92
2023-12-09T00:07:55.333Z,-18.60
2023-12-09T00:10:22.556Z,-18.70
2023-12-09T00:12:49.876Z,-18.68
2023-12-09T00:15:17.601Z,-18.85
2023-12-09T00:17:44.991Z,-18.92
2023-12-09T00:20:12.857Z,-18.92
2023-12-09T00:22:40.474Z,-18.97
2023-12-09T00:25:08.328Z,-18.92
2023-12-09T00:27:36.339Z,-18.96
2023-12-09T00:30:04.032Z,-19.13
2023-12-09T00:32:32.123Z,-19.43
2023-12-09T00:34:59.713Z,-19.47
2023-12-09T00:37:26.959Z,-19.88
2023-12-09T00:39:54.407Z,-19.95
2023-12-09T00:42:21.677Z,-19.68
2023-12-09T00:44:49.739Z,-19.35
2023-12-09T00:47:17.122Z,-19.33
2023-12-09T00:49:44.603Z,-19.24
2023-12-09T00:52:13.094Z,-19.22
2023-12-09T00:54:40.618Z,-19.28
2023-12-09T00:57:08.132Z,-19.47
2023-12-09T00:59:35.828Z,-19.50
2023-12-09T01:02:03.157Z,-19.48
2023-12-09T01:04:30.589Z,-19.65
2023-12-09T01:06:58.564Z,-19.68
2023-12-09T01:09:25.955Z,-19.84
2023-12-09T01:11:54.781Z,-19.76
2023-12-09T01:14:22.389Z,-19.66
2023-12-09T01:16:49.590Z,-19.78
2023-12-09T01:19:16.942Z,-19.90
2023-12-09T01:21:44.146Z,-19.99
2023-12-09T01:24:11.441Z,-20.09
2023-12-09T01:26:38.726Z,-20.13
2023-12-09T01:29:05.986Z,-20.38
2023-12-09T01:31:33.440Z,-20.61
2023-12-09T01:34:01.257Z,-20.72
2023-12-09T01:36:28.606Z,-20.55
2023-12-09T01:38:56.182Z,-20.26
2023-12-09T01:41:23.493Z,-20.23
2023-12-09T01:43:51.755Z,-20.12
2023-12-09T01:46:21.032Z,-20.27
2023-12-09T01:48:49.522Z,-20.40
2023-12-09T01:51:18.907Z,-20.47
2023-12-09T01:53:46.380Z,-20.43
2023-12-09T01:56:15.816Z,-20.31
2023-12-09T01:58:58.813Z,-20.13
2023-12-09T02:01:26.957Z,-20.24
2023-12-09T02:03:55.372Z,-20.25
2023-12-09T02:06:22.689Z,-20.30
2023-12-09T02:08:50.216Z,-20.43
2023-12-09T02:15:01.195Z,-20.97
2023-12-09T02:17:38.738Z,-20.88
2023-12-09T02:20:08.603Z,-20.80
2023-12-09T02:22:35.856Z,-21.03
2023-12-09T02:25:03.219Z,-21.37
2023-12-09T02:27:43.612Z,-21.39
2023-12-09T02:30:27.823Z,-21.48
2023-12-09T02:32:57.528Z,-21.35
2023-12-09T02:35:27.122Z,-21.20
2023-12-09T02:37:57.017Z,-21.50
2023-12-09T02:40:26.072Z,-21.35
2023-12-09T02:42:53.672Z,-21.22
2023-12-09T02:45:21.220Z,-21.09
2023-12-09T02:47:51.903Z,-21.05
2023-12-09T02:50:19.307Z,-20.94
2023-12-09T02:52:46.620Z,-21.10
2023-12-09T02:55:14.003Z,-20.96
2023-12-09T02:57:41.415Z,-21.09
2023-12-09T03:00:09.198Z,-21.27
2023-12-09T03:02:36.573Z,-21.14
2023-12-09T03:05:04.132Z,-21.11
2023-12-09T03:07:31.423Z,-21.11
2023-12-09T03:09:58.811Z,-21.12
2023-12-09T03:12:26.529Z,-21.12
2023-12-09T03:14:54.466Z,-20.96
2023-12-09T03:17:22.998Z,-20.94
2023-12-09T03:19:50.387Z,-20.91
2023-12-09T03:22:17.835Z,-21.02
2023-12-09T03:24:45.192Z,-20.92
2023-12-09T03:27:12.590Z,-20.96
2023-12-09T03:29:39.961Z,-20.91
2023-12-09T03:32:07.381Z,-20.99
2023-12-09T03:34:34.709Z,-21.18
2023-12-09T03:37:02.301Z,-21.09
2023-12-09T03:39:32.615Z,-21.01
2023-12-09T03:42:00.070Z,-21.03
2023-12-09T03:44:27.369Z,-21.03
2023-12-09T03:46:54.647Z,-20.98
2023-12-09T03:49:22.625Z,-21.01
2023-12-09T03:51:50.086Z,-21.15
2023-12-09T03:54:17.582Z,-21.17
2023-12-09T03:56:46.034Z,-21.11
2023-12-09T03:59:13.379Z,-21.22
2023-12-09T04:01:53.165Z,-21.34
2023-12-09T04:04:20.541Z,-21.15
2023-12-09T04:06:47.906Z,-21.15
2023-12-09T04:09:15.251Z,-21.18
2023-12-09T04:11:43.004Z,-21.21
2023-12-09T04:14:10.340Z,-21.18
2023-12-09T04:16:37.607Z,-21.35
2023-12-09T04:19:06.640Z,-21.20
2023-12-09T04:21:35.078Z,-21.04
2023-12-09T04:24:03.026Z,-21.07
2023-12-09T04:26:30.292Z,-21.10
2023-12-09T04:29:00.085Z,-21.22
2023-12-09T04:31:27.719Z,-21.36
2023-12-09T04:33:55.094Z,-21.59
2023-12-09T04:36:22.504Z,-21.39
2023-12-09T04:38:49.808Z,-21.29
2023-12-09T04:41:17.147Z,-21.23
2023-12-09T04:43:44.321Z,-21.15
2023-12-09T04:46:11.581Z,-21.30
2023-12-09T04:48:39.039Z,-21.22
2023-12-09T04:51:06.724Z,-21.21
2023-12-09T04:53:34.220Z,-21.36
2023-12-09T04:56:01.578Z,-21.22
2023-12-09T04:58:28.857Z,-21.18
2023-12-09T05:00:56.478Z,-20.98
2023-12-09T05:03:24.373Z,-21.39
2023-12-09T05:05:51.901Z,-21.51
2023-12-09T05:08:19.326Z,-21.50
2023-12-09T05:10:47.814Z,-21.39
2023-12-09T05:13:15.267Z,-21.17
2023-12-09T05:15:42.849Z,-21.47
2023-12-09T05:18:10.479Z,-21.43
2023-12-09T05:20:38.158Z,-21.40
2023-12-09T05:23:08.012Z,-21.35
2023-12-09T05:25:36.826Z,-21.55
2023-12-09T05:28:04.419Z,-21.49
2023-12-09T05:30:33.039Z,-21.35
2023-12-09T05:33:01.014Z,-21.18
2023-12-09T05:35:29.039Z,-21.05
2023-12-09T05:38:01.044Z,-20.99
2023-12-09T05:40:28.750Z,-21.01
2023-12-09T05:42:56.282Z,-21.07
2023-12-09T05:45:32.111Z,-21.00
2023-12-09T05:47:59.988Z,-20.92
2023-12-09T05:50:27.628Z,-20.87
2023-12-09T05:52:59.104Z,-20.94
2023-12-09T05:55:27.954Z,-20.73
2023-12-09T05:57:58.835Z,-20.96
2023-12-09T06:07:34.656Z,-20.61
2023-12-09T06:10:18.830Z,-20.66
2023-12-09T06:12:59.379Z,-20.40
2023-12-09T06:24:45.116Z,-20.19
2023-12-09T06:27:22.571Z,-20.06
2023-12-09T06:35:25.856Z,-19.62
2023-12-09T06:49:49.212Z,-19.84
2023-12-09T06:52:17.765Z,-19.46
2023-12-09T06:54:46.744Z,-19.48
2023-12-09T06:57:14.025Z,-19.38
2023-12-09T06:59:55.456Z,-19.24
2023-12-09T07:02:22.901Z,-19.31
2023-12-09T07:04:50.185Z,-19.39
2023-12-09T07:07:21.926Z,-19.39
2023-12-09T07:09:53.175Z,-19.25
2023-12-09T07:12:20.803Z,-19.05
2023-12-09T07:15:09.857Z,-19.05
2023-12-09T07:18:06.066Z,-19.46
2023-12-09T07:20:34.603Z,-19.33
2023-12-09T07:23:22.612Z,-19.13
2023-12-09T07:25:50.219Z,-19.11
2023-12-09T07:28:17.893Z,-19.33
2023-12-09T07:30:47.616Z,-19.76
2023-12-09T07:33:20.232Z,-19.66
2023-12-09T07:35:47.974Z,-19.39
2023-12-09T07:38:15.478Z,-19.19
2023-12-09T07:40:55.633Z,-18.83
2023-12-09T07:43:26.098Z,-18.70
2023-12-09T07:45:54.088Z,-18.80
2023-12-09T07:48:25.637Z,-18.87
2023-12-09T07:57:56.642Z,-18.85
2023-12-09T08:00:28.690Z,-19.06
2023-12-09T08:03:10.494Z,-18.71
2023-12-09T08:05:43.519Z,-18.41
2023-12-09T08:11:59.063Z,-18.55
2023-12-09T08:14:35.511Z,-18.65
2023-12-09T08:24:05.561Z,-18.60
2023-12-09T08:49:50.884Z,-18.15
2023-12-09T08:52:20.894Z,-18.07
2023-12-09T09:23:23.066Z,-17.15
2023-12-09T09:36:25.322Z,-17.21
2023-12-09T09:38:58.394Z,-17.43
2023-12-09T09:55:53.315Z,-17.36
2023-12-09T10:02:20.022Z,-17.05
2023-12-09T10:09:09.070Z,-16.97
2023-12-09T10:29:33.770Z,-17.06
2023-12-09T10:32:10.668Z,-17.03
2023-12-09T10:35:13.780Z,-16.71
2023-12-09T11:20:57.141Z,-16.85
2023-12-09T12:43:02.030Z,-17.56
2023-12-09T13:09:32.382Z,-17.46
2023-12-09T13:12:00.149Z,-17.35
2023-12-09T13:14:34.893Z,-17.53
2023-12-09T13:17:04.585Z,-17.62
2023-12-09T13:19:32.949Z,-17.58
2023-12-09T13:22:02.876Z,-17.63
2023-12-09T13:24:30.795Z,-17.73
2023-12-09T13:27:09.193Z,-17.90
2023-12-09T13:32:56.498Z,-17.86
2023-12-09T13:35:27.584Z,-17.98
2023-12-09T13:38:43.503Z,-17.77
2023-12-09T13:44:16.948Z,-17.70
2023-12-09T13:47:32.310Z,-17.83
2023-12-09T13:53:57.073Z,-17.82
2023-12-09T13:59:40.314Z,-18.01
2023-12-09T14:06:32.932Z,-18.02
2023-12-09T14:09:03.542Z,-17.95
2023-12-09T14:14:37.440Z,-18.05
2023-12-09T14:17:21.798Z,-17.74
2023-12-09T14:19:57.731Z,-17.53
2023-12-09T14:22:30.536Z,-17.41
2023-12-09T14:25:06.916Z,-17.34
2023-12-09T14:27:55.087Z,-17.58
2023-12-09T14:36:10.360Z,-17.89
2023-12-09T14:38:44.078Z,-17.75
2023-12-09T14:41:14.260Z,-17.66
2023-12-09T14:48:14.253Z,-17.41
2023-12-09T14:54:12.139Z,-17.70
2023-12-09T14:59:37.477Z,-17.48
2023-12-09T15:02:46.036Z,-17.43
2023-12-09T15:08:09.697Z,-17.37
2023-12-09T15:10:49.817Z,-17.42
2023-12-09T15:13:40.629Z,-17.29
2023-12-09T15:16:28.257Z,-17.44
2023-12-09T15:19:11.226Z,-17.25
2023-12-09T15:22:17.213Z,-17.33
2023-12-09T15:24:55.286Z,-17.35
2023-12-09T15:27:28.649Z,-17.42
2023-12-09T15:30:16.638Z,-17.59
2023-12-09T15:33:07.603Z,-17.87
2023-12-09T15:35:43.996Z,-17.68
2023-12-09T15:38:22.186Z,-17.40
2023-12-09T15:40:53.503Z,-17.59
2023-12-09T15:43:50.226Z,-17.67
2023-12-09T15:46:20.109Z,-17.48
2023-12-09T15:48:52.567Z,-17.43
2023-12-09T15:51:28.436Z,-17.53
2023-12-09T15:54:05.956Z,-17.69
2023-12-09T15:56:39.605Z,-17.65
2023-12-09T15:59:20.383Z,-17.64
2023-12-09T16:02:06.738Z,-17.48
2023-12-09T16:07:57.356Z,-17.31
2023-12-09T16:13:42.858Z,-17.28
2023-12-09T16:16:15.592Z,-17.61
2023-12-09T16:19:06.955Z,-17.68
2023-12-09T16:21:40.080Z,-17.69
2023-12-09T16:24:17.413Z,-17.73
2023-12-09T16:26:57.534Z,-17.51
2023-12-09T16:29:39.551Z,-17.62
2023-12-09T16:32:17.889Z,-17.73
2023-12-09T16:38:28.499Z,-17.93
2023-12-09T16:41:00.877Z,-17.73
2023-12-09T16:43:35.600Z,-17.54
2023-12-09T16:46:03.316Z,-17.61
2023-12-09T16:52:13.870Z,-17.49
2023-12-09T16:54:41.804Z,-17.53
2023-12-09T16:57:13.684Z,-17.61
2023-12-09T16:59:41.602Z,-17.72
